Time;durP1;ratioP1;P1;durP2;ratioP2;P2;SDS_P1;SDS_P2;PMS_P1;PMS_P2;Temp;Humidity;BMP_temperature;BMP_pressure;BME280_temperature;BME280_humidity;BME280_pressure;Samples;Min_cycle;Max_cycle;Signal;HPM_P1;HPM_P2
2020/12/28 00:02:11;;;;;;;3.40;2.90;;;4.70;99.90;;;;;;5022680;28;20266;-51
2020/12/28 00:04:37;;;;;;;6.30;4.90;;;4.70;99.90;;;;;;5037936;28;20211;-53
2020/12/28 00:07:05;;;;;;;6.97;5.60;;;4.50;99.90;;;;;;5043295;28;20192;-55
2020/12/28 00:09:31;;;;;;;6.43;5.10;;;4.20;99.90;;;;;;5041982;28;20188;-47
2020/12/28 00:11:58;;;;;;;5.93;4.80;;;4.10;99.90;;;;;;5039524;28;20242;-57
2020/12/28 00:14:24;;;;;;;6.27;5.13;;;4.10;99.90;;;;;;5042850;28;20180;-56
2020/12/28 00:16:51;;;;;;;5.33;4.77;;;4.10;99.90;;;;;;5043607;28;20616;-57
2020/12/28 00:19:17;;;;;;;5.00;4.30;;;4.10;99.90;;;;;;5025231;28;20196;-53
2020/12/28 00:21:42;;;;;;;5.77;4.57;;;4.10;99.90;;;;;;5040544;28;20540;-50
2020/12/28 00:24:08;;;;;;;5.50;4.63;;;4.00;99.90;;;;;;5043947;28;20190;-51
2020/12/28 00:26:45;;;;;;;5.53;4.57;;;3.80;99.90;;;;;;5022286;28;20187;-55
2020/12/28 00:29:15;;;;;;;5.57;4.33;;;3.70;99.90;;;;;;5040045;28;20310;-49
2020/12/28 00:31:42;;;;;;;5.40;4.00;;;3.80;99.90;;;;;;5037872;28;20168;-50
2020/12/28 00:34:07;;;;;;;5.77;4.30;;;3.80;99.90;;;;;;5042106;28;20318;-56
2020/12/28 00:36:33;;;;;;;5.63;4.37;;;3.90;99.90;;;;;;5041941;28;20242;-52
2020/12/28 00:38:59;;;;;;;5.97;4.37;;;3.90;99.90;;;;;;5038836;28;20196;-47
2020/12/28 00:41:24;;;;;;;4.40;4.00;;;4.00;99.90;;;;;;5045096;28;20203;-49
2020/12/28 00:43:50;;;;;;;5.10;4.00;;;4.00;99.90;;;;;;5036839;28;20196;-48
2020/12/28 00:46:16;;;;;;;6.73;4.37;;;4.10;99.90;;;;;;5035253;28;20270;-57
2020/12/28 00:48:42;;;;;;;4.87;4.20;;;4.10;99.90;;;;;;5018759;28;20199;-54
2020/12/28 00:51:14;;;;;;;5.70;4.33;;;4.10;99.90;;;;;;5039406;28;20188;-55
2020/12/28 00:53:41;;;;;;;4.10;3.50;;;4.00;99.90;;;;;;5039231;28;20258;-56
2020/12/28 00:56:06;;;;;;;5.40;4.10;;;4.10;99.90;;;;;;5042496;28;20204;-47
2020/12/28 00:58:36;;;;;;;5.23;3.97;;;4.00;99.90;;;;;;5040966;28;20235;-50
2020/12/28 01:01:05;;;;;;;5.27;3.90;;;3.90;99.90;;;;;;5037216;28;20188;-48
2020/12/28 01:03:31;;;;;;;4.77;4.00;;;4.00;99.90;;;;;;5040323;28;20172;-49
2020/12/28 01:05:57;;;;;;;4.73;3.90;;;3.90;99.90;;;;;;5016532;28;20207;-51
2020/12/28 01:08:23;;;;;;;4.57;3.70;;;3.70;99.90;;;;;;5035701;28;20200;-48
2020/12/28 01:10:49;;;;;;;6.53;4.80;;;3.20;99.90;;;;;;5035641;28;20180;-55
2020/12/28 01:13:15;;;;;;;6.97;4.97;;;2.90;99.90;;;;;;5038300;28;20199;-47
2020/12/28 01:15:43;;;;;;;7.07;5.20;;;2.70;99.90;;;;;;5032825;28;20319;-48
2020/12/28 01:18:08;;;;;;;5.77;4.60;;;2.70;99.90;;;;;;5036969;28;20200;-50
2020/12/28 01:20:37;;;;;;;6.20;4.37;;;2.80;99.90;;;;;;5022842;28;20215;-48
2020/12/28 01:23:02;;;;;;;4.93;4.13;;;3.00;99.90;;;;;;5033365;28;20204;-48
2020/12/28 01:25:28;;;;;;;5.40;3.93;;;3.20;99.90;;;;;;5035935;28;20184;-50
2020/12/28 01:27:53;;;;;;;5.27;4.23;;;3.30;99.90;;;;;;5035487;28;20265;-52
2020/12/28 01:30:19;;;;;;;4.23;3.67;;;3.40;99.90;;;;;;5016522;28;20195;-47
2020/12/28 01:32:44;;;;;;;5.83;4.33;;;3.50;99.90;;;;;;5034800;28;20188;-51
2020/12/28 01:35:10;;;;;;;5.40;4.10;;;3.50;99.90;;;;;;5037266;28;20655;-48
2020/12/28 01:37:35;;;;;;;4.83;4.10;;;3.50;99.90;;;;;;5036706;28;20175;-55
2020/12/28 01:40:01;;;;;;;5.57;4.30;;;3.30;99.90;;;;;;5021338;28;20302;-57
2020/12/28 01:42:26;;;;;;;5.00;3.90;;;3.30;99.90;;;;;;5021884;28;20280;-47
2020/12/28 01:44:52;;;;;;;5.37;3.83;;;3.30;99.90;;;;;;5036722;28;20183;-50
2020/12/28 01:47:18;;;;;;;4.13;3.70;;;3.40;99.90;;;;;;5041516;28;20262;-47
2020/12/28 01:49:43;;;;;;;5.03;3.90;;;3.60;99.90;;;;;;5037234;28;20199;-52
2020/12/28 01:52:09;;;;;;;5.17;3.87;;;3.70;99.90;;;;;;5039965;28;20229;-55
2020/12/28 01:54:35;;;;;;;5.30;4.00;;;3.80;99.90;;;;;;5035486;28;20248;-47
2020/12/28 01:57:01;;;;;;;5.07;4.10;;;3.90;99.90;;;;;;5035399;28;20686;-50
2020/12/28 01:59:26;;;;;;;6.07;4.20;;;3.90;99.90;;;;;;5035776;28;20200;-54
2020/12/28 02:01:54;;;;;;;4.33;3.73;;;4.00;99.90;;;;;;5018072;28;20542;-48
2020/12/28 02:04:20;;;;;;;4.73;3.87;;;4.10;99.90;;;;;;5017801;28;20180;-55
2020/12/28 02:06:46;;;;;;;5.53;3.83;;;4.00;99.90;;;;;;5018989;28;20246;-48
2020/12/28 02:09:13;;;;;;;5.03;3.60;;;4.00;99.90;;;;;;5016629;28;20196;-50
2020/12/28 02:11:38;;;;;;;5.10;4.23;;;4.00;99.90;;;;;;5028314;28;20183;-54
2020/12/28 02:14:04;;;;;;;4.33;3.93;;;4.10;99.90;;;;;;5037702;28;20191;-57
2020/12/28 02:16:30;;;;;;;5.23;3.97;;;4.10;99.90;;;;;;5034123;28;20292;-53
2020/12/28 02:18:55;;;;;;;4.57;4.07;;;4.20;99.90;;;;;;5035400;28;20203;-51
2020/12/28 02:21:21;;;;;;;5.53;4.47;;;4.20;99.90;;;;;;5036441;28;20176;-49
2020/12/28 02:23:46;;;;;;;7.80;5.53;;;4.30;99.90;;;;;;5033625;28;20171;-47
2020/12/28 02:26:12;;;;;;;6.97;4.90;;;4.30;99.90;;;;;;5038330;28;20175;-53
2020/12/28 02:28:38;;;;;;;6.30;4.23;;;4.40;99.90;;;;;;5033131;28;20203;-50
2020/12/28 02:31:04;;;;;;;5.53;4.40;;;4.30;99.90;;;;;;5033818;28;20196;-51
2020/12/28 02:33:30;;;;;;;7.13;4.63;;;4.40;99.90;;;;;;5044375;28;20241;-57
2020/12/28 02:35:55;;;;;;;5.97;4.10;;;4.40;99.90;;;;;;5043790;28;20204;-55
2020/12/28 02:38:21;;;;;;;6.53;4.70;;;5.20;99.90;;;;;;5021130;28;20191;-48
2020/12/28 02:40:47;;;;;;;5.87;4.63;;;4.40;99.90;;;;;;5037738;28;20510;-55
2020/12/28 02:43:12;;;;;;;6.47;4.93;;;4.40;99.90;;;;;;5044989;28;20175;-54
2020/12/28 02:45:38;;;;;;;6.30;4.83;;;4.40;99.90;;;;;;5040688;28;20176;-54
2020/12/28 02:48:03;;;;;;;9.47;4.30;;;4.30;99.90;;;;;;5039519;28;20282;-52
2020/12/28 02:50:29;;;;;;;6.23;4.53;;;4.30;99.90;;;;;;5044042;28;20658;-51
2020/12/28 02:52:55;;;;;;;5.73;4.47;;;4.30;99.90;;;;;;5037860;28;20351;-47
2020/12/28 02:55:20;;;;;;;7.90;4.77;;;4.20;99.90;;;;;;5040669;28;20203;-55
2020/12/28 02:57:46;;;;;;;7.00;5.00;;;4.30;99.90;;;;;;5024311;28;20253;-48
2020/12/28 03:00:12;;;;;;;5.17;3.70;;;4.30;99.90;;;;;;5037110;28;20672;-47
2020/12/28 03:02:38;;;;;;;4.77;4.10;;;4.40;99.90;;;;;;5036396;28;20655;-48
2020/12/28 03:05:04;;;;;;;6.33;4.10;;;4.30;99.90;;;;;;5037756;28;20179;-51
2020/12/28 03:07:30;;;;;;;4.90;3.70;;;4.40;99.90;;;;;;5041105;28;20671;-54
2020/12/28 03:09:56;;;;;;;5.77;4.00;;;4.40;99.90;;;;;;5043346;28;20179;-48
2020/12/28 03:12:23;;;;;;;5.30;3.93;;;4.30;99.90;;;;;;5041233;28;20202;-57
2020/12/28 03:14:48;;;;;;;4.63;3.20;;;4.50;99.90;;;;;;5024557;28;20338;-51
2020/12/28 03:17:14;;;;;;;4.30;3.67;;;4.20;99.90;;;;;;5036266;28;20267;-48
2020/12/28 03:19:40;;;;;;;4.87;3.70;;;4.10;99.90;;;;;;5038533;28;20211;-57
2020/12/28 03:22:05;;;;;;;4.00;3.60;;;4.20;99.90;;;;;;5039142;28;20186;-50
2020/12/28 03:24:31;;;;;;;4.80;3.90;;;4.20;99.90;;;;;;5019867;28;20307;-57
2020/12/28 03:27:02;;;;;;;4.00;3.50;;;4.20;99.90;;;;;;5021340;28;20184;-48
2020/12/28 03:29:28;;;;;;;4.17;3.60;;;4.30;99.90;;;;;;5037664;28;20311;-55
2020/12/28 03:31:54;;;;;;;5.20;3.90;;;4.10;99.90;;;;;;5037330;28;20176;-48
2020/12/28 03:34:19;;;;;;;4.43;3.90;;;4.00;99.90;;;;;;5039440;28;20644;-57
2020/12/28 03:36:45;;;;;;;4.57;3.93;;;4.00;99.90;;;;;;5037873;28;20286;-49
2020/12/28 03:39:10;;;;;;;5.47;4.37;;;4.00;99.90;;;;;;5036035;28;20219;-55
2020/12/28 03:41:36;;;;;;;5.80;4.40;;;3.90;99.90;;;;;;5036166;28;20172;-52
2020/12/28 03:44:01;;;;;;;5.43;4.00;;;3.90;99.90;;;;;;5034073;28;20656;-47
2020/12/28 03:46:27;;;;;;;5.83;4.40;;;3.80;99.90;;;;;;5042951;28;20179;-55
2020/12/28 03:48:52;;;;;;;5.87;4.67;;;4.10;99.90;;;;;;5022285;28;20671;-55
2020/12/28 03:51:18;;;;;;;5.73;4.30;;;3.80;99.90;;;;;;5035568;28;20200;-47
2020/12/28 03:53:44;;;;;;;6.23;4.67;;;3.70;99.90;;;;;;5035561;28;20211;-51
2020/12/28 03:56:09;;;;;;;5.90;4.57;;;3.70;99.90;;;;;;5038000;28;20222;-53
2020/12/28 03:58:34;;;;;;;5.53;4.30;;;3.70;99.90;;;;;;5041063;28;20195;-50
2020/12/28 04:01:00;;;;;;;6.13;4.83;;;3.70;99.90;;;;;;5038780;28;20255;-51
2020/12/28 04:03:25;;;;;;;5.97;4.60;;;3.70;99.90;;;;;;5036266;28;20546;-48
2020/12/28 04:05:51;;;;;;;5.40;4.73;;;3.60;99.90;;;;;;5021683;28;20192;-47
2020/12/28 04:08:17;;;;;;;6.00;4.67;;;3.40;99.90;;;;;;5038623;28;20232;-53
2020/12/28 04:10:43;;;;;;;6.13;5.10;;;3.10;99.90;;;;;;5036821;28;20184;-55
2020/12/28 04:13:08;;;;;;;7.17;4.73;;;2.90;99.90;;;;;;5023922;28;20318;-57
2020/12/28 04:15:34;;;;;;;5.67;4.80;;;3.50;99.90;;;;;;5039054;28;20199;-51
2020/12/28 04:17:59;;;;;;;6.80;5.27;;;2.80;99.90;;;;;;5035071;28;20235;-50
2020/12/28 04:20:25;;;;;;;6.57;5.10;;;2.80;99.90;;;;;;5046136;28;20172;-49
2020/12/28 04:22:50;;;;;;;5.77;4.73;;;2.80;99.90;;;;;;5039793;28;20180;-50
2020/12/28 04:25:16;;;;;;;6.80;4.80;;;2.90;99.90;;;;;;5033021;28;20199;-50
2020/12/28 04:27:42;;;;;;;5.80;4.63;;;3.00;99.90;;;;;;5038830;28;20204;-55
2020/12/28 04:30:09;;;;;;;6.17;4.77;;;3.10;99.90;;;;;;5037784;28;20430;-53
2020/12/28 04:32:35;;;;;;;5.53;4.53;;;3.00;99.90;;;;;;5040546;28;20176;-57
2020/12/28 04:35:01;;;;;;;5.33;4.37;;;2.80;99.90;;;;;;5031065;28;20219;-50
2020/12/28 04:37:27;;;;;;;5.80;4.53;;;3.00;99.90;;;;;;5022343;28;20219;-51
2020/12/28 04:39:52;;;;;;;5.97;4.73;;;3.10;99.90;;;;;;5021581;28;20180;-50
2020/12/28 04:42:28;;;;;;;6.07;4.60;;;3.20;99.90;;;;;;5025718;28;20255;-48
2020/12/28 04:44:55;;;;;;;5.23;4.37;;;3.20;99.90;;;;;;5014684;28;20195;-52
2020/12/28 04:47:21;;;;;;;5.30;3.93;;;3.30;99.90;;;;;;5023578;28;20415;-53
2020/12/28 04:49:47;;;;;;;5.10;4.30;;;3.30;99.90;;;;;;5015324;28;20168;-55
2020/12/28 04:52:14;;;;;;;6.27;4.60;;;3.40;99.90;;;;;;5016122;28;20255;-49
2020/12/28 04:54:40;;;;;;;5.07;4.33;;;3.50;99.90;;;;;;5017304;28;20200;-50
2020/12/28 04:57:09;;;;;;;5.03;4.07;;;3.60;99.90;;;;;;5018594;28;20176;-48
2020/12/28 04:59:35;;;;;;;6.17;4.40;;;3.70;99.90;;;;;;5022474;28;20180;-53
2020/12/28 05:02:01;;;;;;;5.07;4.13;;;3.80;99.90;;;;;;5034723;28;20171;-49
2020/12/28 05:04:27;;;;;;;7.93;4.33;;;3.80;99.90;;;;;;5035406;28;20180;-47
2020/12/28 05:07:03;;;;;;;5.77;4.23;;;3.80;99.90;;;;;;5034781;28;20168;-53
2020/12/28 05:09:30;;;;;;;8.30;4.37;;;3.80;99.90;;;;;;5037893;28;20524;-49
2020/12/28 05:11:57;;;;;;;5.53;4.13;;;3.70;99.90;;;;;;5041829;28;20175;-48
2020/12/28 05:14:23;;;;;;;5.10;4.13;;;3.80;99.90;;;;;;5037993;28;20274;-51
2020/12/28 05:16:49;;;;;;;5.83;3.83;;;3.80;99.90;;;;;;5040541;28;20203;-56
2020/12/28 05:19:17;;;;;;;5.83;4.20;;;3.90;99.90;;;;;;5036602;28;20213;-53
2020/12/28 05:21:43;;;;;;;5.27;4.20;;;3.90;99.90;;;;;;5037007;28;20183;-51
2020/12/28 05:24:16;;;;;;;5.10;4.10;;;3.90;99.90;;;;;;5041313;28;20183;-56
2020/12/28 05:26:43;;;;;;;4.73;4.03;;;3.90;99.90;;;;;;5033934;28;20171;-53
2020/12/28 05:29:29;;;;;;;5.07;4.17;;;3.90;99.90;;;;;;5037048;28;20262;-53
2020/12/28 05:31:55;;;;;;;5.93;4.20;;;3.90;99.90;;;;;;5035957;28;20258;-49
2020/12/28 05:34:26;;;;;;;5.33;4.27;;;3.80;99.90;;;;;;5039314;28;20199;-49
2020/12/28 05:36:54;;;;;;;5.60;4.40;;;3.80;99.90;;;;;;5034872;28;20210;-57
2020/12/28 05:39:22;;;;;;;5.20;4.03;;;3.90;99.90;;;;;;5035149;28;20187;-54
2020/12/28 05:42:07;;;;;;;5.10;4.20;;;3.90;99.90;;;;;;5041134;28;20640;-54
2020/12/28 05:44:34;;;;;;;5.77;4.37;;;3.80;99.90;;;;;;5038193;28;20933;-48
2020/12/28 05:47:02;;;;;;;6.20;4.40;;;3.70;99.90;;;;;;5035910;28;20407;-47
2020/12/28 05:49:33;;;;;;;5.63;4.20;;;3.70;99.90;;;;;;5029930;28;20350;-51
2020/12/28 05:51:59;;;;;;;6.33;4.23;;;3.60;99.90;;;;;;5031952;28;20221;-47
2020/12/28 05:54:28;;;;;;;5.40;4.27;;;3.70;99.90;;;;;;5033076;28;20265;-51
2020/12/28 05:56:55;;;;;;;7.00;4.03;;;3.70;99.90;;;;;;5034722;28;20207;-56
2020/12/28 05:59:21;;;;;;;5.50;4.40;;;4.50;99.90;;;;;;5035143;28;20195;-50
2020/12/28 06:01:48;;;;;;;5.07;4.20;;;3.80;99.90;;;;;;5040943;28;20176;-56
2020/12/28 06:04:15;;;;;;;6.43;4.47;;;3.90;99.90;;;;;;5040741;28;20249;-48
2020/12/28 06:06:42;;;;;;;6.87;5.00;;;3.90;99.90;;;;;;5036341;28;20172;-47
2020/12/28 06:09:08;;;;;;;5.90;4.60;;;3.90;99.90;;;;;;5016344;28;20210;-56
2020/12/28 06:11:34;;;;;;;4.83;4.00;;;3.80;99.90;;;;;;5037189;28;20194;-52
2020/12/28 06:14:11;;;;;;;5.10;4.33;;;3.30;99.90;;;;;;5035858;28;20203;-53
2020/12/28 06:16:36;;;;;;;5.23;4.20;;;2.90;99.90;;;;;;5028740;28;20207;-48
2020/12/28 06:19:02;;;;;;;6.30;4.63;;;2.70;99.90;;;;;;5040457;28;20202;-48
2020/12/28 06:21:37;;;;;;;6.23;4.60;;;2.70;99.90;;;;;;5014045;28;20191;-50
2020/12/28 06:24:04;;;;;;;8.80;5.17;;;2.80;99.90;;;;;;5029919;28;20198;-51
2020/12/28 06:26:29;;;;;;;6.00;4.50;;;3.00;99.90;;;;;;5035612;28;20517;-50
2020/12/28 06:29:08;;;;;;;5.47;4.33;;;3.10;99.90;;;;;;5027209;28;20568;-54
2020/12/28 06:31:34;;;;;;;5.37;4.07;;;3.10;99.90;;;;;;5030175;28;20206;-55
2020/12/28 06:34:00;;;;;;;5.60;4.00;;;3.20;99.90;;;;;;5038427;28;20184;-54
2020/12/28 06:36:26;;;;;;;5.37;4.10;;;3.20;99.90;;;;;;5020745;28;20898;-50
2020/12/28 06:38:59;;;;;;;4.55;4.05;;;3.30;99.90;;;;;;5032218;28;20758;-48
2020/12/28 06:41:29;;;;;;;4.57;3.50;;;3.50;99.90;;;;;;5032800;28;20184;-51
2020/12/28 06:44:02;;;;;;;4.87;3.70;;;3.60;99.90;;;;;;5034450;28;20775;-53
2020/12/28 06:46:28;;;;;;;5.00;3.93;;;3.60;99.90;;;;;;5033032;28;20266;-52
2020/12/28 06:48:55;;;;;;;6.10;4.07;;;3.70;99.90;;;;;;5032079;28;20192;-49
2020/12/28 06:51:23;;;;;;;4.67;3.50;;;3.70;99.90;;;;;;5033546;28;20230;-47
2020/12/28 06:53:56;;;;;;;4.70;3.87;;;3.70;99.90;;;;;;5031487;28;20243;-50
2020/12/28 06:56:25;;;;;;;4.03;3.37;;;3.80;99.90;;;;;;5035112;28;20693;-50
2020/12/28 06:58:59;;;;;;;4.47;3.50;;;3.70;99.90;;;;;;5031931;28;20722;-50
2020/12/28 07:01:25;;;;;;;4.37;3.83;;;3.60;99.90;;;;;;5033623;28;20184;-52
2020/12/28 07:03:52;;;;;;;5.20;3.77;;;3.50;99.90;;;;;;5032007;28;20414;-48
2020/12/28 07:06:18;;;;;;;9.53;7.33;;;3.60;99.90;;;;;;5031828;28;20187;-48
2020/12/28 07:08:44;;;;;;;8.53;6.07;;;3.50;99.90;;;;;;5033218;28;20274;-48
2020/12/28 07:11:09;;;;;;;8.30;6.47;;;3.20;99.90;;;;;;5033557;28;20681;-51
2020/12/28 07:13:35;;;;;;;8.53;6.70;;;3.20;99.90;;;;;;5033361;28;20184;-47
2020/12/28 07:16:01;;;;;;;7.30;5.60;;;3.20;99.90;;;;;;5033423;28;20277;-47
2020/12/28 07:18:27;;;;;;;6.80;5.60;;;3.40;99.90;;;;;;5035342;28;20594;-54
2020/12/28 07:20:56;;;;;;;6.80;5.27;;;3.30;99.90;;;;;;5036683;28;20902;-49
2020/12/28 07:23:27;;;;;;;6.60;5.90;;;3.40;99.90;;;;;;5037146;28;20344;-55
2020/12/28 07:26:10;;;;;;;8.50;6.67;;;3.50;99.90;;;;;;5036807;28;20176;-52
2020/12/28 07:28:38;;;;;;;7.30;5.73;;;3.50;99.90;;;;;;5036588;28;20204;-47
2020/12/28 07:31:06;;;;;;;9.00;6.50;;;3.70;99.90;;;;;;5036412;28;20469;-55
2020/12/28 07:33:32;;;;;;;7.23;5.90;;;3.70;99.90;;;;;;5035725;28;20175;-51
2020/12/28 07:36:09;;;;;;;6.43;5.47;;;3.70;99.90;;;;;;5037135;28;20462;-55
2020/12/28 07:38:35;;;;;;;6.63;5.50;;;3.80;99.90;;;;;;5032391;28;20222;-53
2020/12/28 07:41:01;;;;;;;5.87;5.13;;;3.80;99.90;;;;;;5036123;28;20532;-52
2020/12/28 07:43:30;;;;;;;6.27;5.10;;;3.80;99.90;;;;;;5037855;28;20505;-50
2020/12/28 07:46:19;;;;;;;6.87;4.83;;;3.80;99.90;;;;;;5036424;28;20180;-54
2020/12/28 07:48:46;;;;;;;5.20;4.23;;;3.80;99.90;;;;;;5028929;28;20273;-53
2020/12/28 07:51:18;;;;;;;4.60;4.00;;;3.70;99.90;;;;;;5038839;28;20214;-54
2020/12/28 07:53:48;;;;;;;5.00;3.97;;;3.70;99.90;;;;;;5018695;28;20180;-50
2020/12/28 07:56:28;;;;;;;4.80;4.07;;;3.70;99.90;;;;;;5035785;28;20993;-50
2020/12/28 07:59:29;;;;;;;5.17;4.43;;;3.70;99.90;;;;;;5035821;28;20466;-49
2020/12/28 08:01:58;;;;;;;5.07;4.07;;;3.70;99.90;;;;;;5033286;28;20235;-51
2020/12/28 08:04:25;;;;;;;4.87;3.93;;;3.90;99.90;;;;;;5037656;28;20191;-53
2020/12/28 08:06:55;;;;;;;5.67;4.57;;;3.90;99.90;;;;;;5034734;28;20184;-48
2020/12/28 08:09:22;;;;;;;5.80;4.03;;;4.00;99.90;;;;;;5034798;28;20235;-56
2020/12/28 08:12:01;;;;;;;5.90;4.23;;;4.10;99.90;;;;;;5035107;28;20184;-54
2020/12/28 08:14:27;;;;;;;4.20;3.70;;;4.20;99.90;;;;;;5020727;28;20200;-55
2020/12/28 08:16:53;;;;;;;5.23;3.83;;;4.30;99.90;;;;;;5036057;28;20211;-53
2020/12/28 08:19:28;;;;;;;4.50;3.50;;;4.40;99.90;;;;;;5030987;28;20227;-47
2020/12/28 08:21:54;;;;;;;5.03;3.80;;;4.30;99.90;;;;;;5038225;28;20381;-48
2020/12/28 08:24:21;;;;;;;5.03;4.10;;;4.40;99.90;;;;;;5038037;28;20191;-55
2020/12/28 08:26:49;;;;;;;4.60;4.03;;;4.50;99.90;;;;;;5036799;28;20233;-51
2020/12/28 08:29:15;;;;;;;5.03;4.23;;;4.50;99.90;;;;;;5035927;28;20214;-51
2020/12/28 08:31:41;;;;;;;6.43;4.40;;;4.60;99.90;;;;;;5033495;28;20187;-51
2020/12/28 08:34:12;;;;;;;5.77;4.73;;;4.70;99.90;;;;;;5023932;28;20607;-54
2020/12/28 08:36:52;;;;;;;5.70;4.43;;;4.60;99.90;;;;;;5037462;28;20215;-55
2020/12/28 08:39:20;;;;;;;7.03;4.73;;;4.40;99.90;;;;;;5038471;28;20667;-47
2020/12/28 08:41:57;;;;;;;6.20;4.63;;;4.40;99.90;;;;;;5032772;28;20188;-51
2020/12/28 08:44:40;;;;;;;6.13;4.60;;;4.50;99.90;;;;;;5031534;28;20211;-48
2020/12/28 08:47:10;;;;;;;7.27;4.47;;;4.70;99.90;;;;;;5033124;28;20176;-57
2020/12/28 08:49:36;;;;;;;5.80;4.33;;;5.00;99.90;;;;;;5034472;28;20204;-47
2020/12/28 08:52:12;;;;;;;5.20;4.07;;;4.90;99.90;;;;;;5034314;28;20198;-48
2020/12/28 08:54:38;;;;;;;5.20;4.03;;;4.90;99.90;;;;;;5035763;28;20184;-54
2020/12/28 08:57:04;;;;;;;6.37;4.30;;;4.80;99.90;;;;;;5034999;28;20237;-53
2020/12/28 08:59:30;;;;;;;6.00;3.80;;;4.70;99.90;;;;;;4995774;28;20299;-48
2020/12/28 09:01:56;;;;;;;5.50;4.03;;;4.50;99.90;;;;;;5030202;28;20263;-53
2020/12/28 09:04:23;;;;;;;4.57;3.43;;;4.50;99.90;;;;;;5034153;28;20179;-47
2020/12/28 09:06:50;;;;;;;6.23;5.57;;;4.40;99.90;;;;;;5033711;28;20192;-50
2020/12/28 09:09:15;;;;;;;5.00;3.87;;;4.40;99.90;;;;;;5036267;28;20224;-47
2020/12/28 09:11:41;;;;;;;4.07;3.50;;;4.50;99.90;;;;;;5026343;28;20241;-47
2020/12/28 09:14:07;;;;;;;6.63;3.90;;;4.50;99.90;;;;;;5018071;28;20248;-52
2020/12/28 09:16:33;;;;;;;3.93;3.30;;;4.60;99.90;;;;;;5022705;28;20302;-51
2020/12/28 09:18:59;;;;;;;5.30;3.60;;;4.60;99.90;;;;;;5031558;28;20282;-47
2020/12/28 09:21:24;;;;;;;6.70;3.50;;;4.60;99.90;;;;;;5033245;28;20235;-53
2020/12/28 09:23:50;;;;;;;4.77;3.83;;;4.60;99.90;;;;;;5036065;28;20616;-52
2020/12/28 09:26:16;;;;;;;4.27;3.30;;;4.70;99.90;;;;;;5035052;28;20282;-48
2020/12/28 09:28:42;;;;;;;4.10;3.30;;;4.60;99.90;;;;;;5036531;28;20208;-56
2020/12/28 09:31:08;;;;;;;4.30;3.27;;;4.60;99.90;;;;;;5021570;28;20262;-48
2020/12/28 09:33:34;;;;;;;4.80;3.40;;;4.70;99.90;;;;;;5035073;28;20221;-48
2020/12/28 09:35:59;;;;;;;3.97;3.30;;;4.70;99.90;;;;;;5035111;28;20544;-49
2020/12/28 09:38:26;;;;;;;3.80;3.33;;;4.80;99.90;;;;;;5017611;28;20278;-48
2020/12/28 09:40:51;;;;;;;4.37;3.47;;;4.90;99.90;;;;;;5020517;28;20222;-55
2020/12/28 09:43:17;;;;;;;4.73;3.50;;;5.00;99.90;;;;;;5033269;28;20258;-51
2020/12/28 09:45:42;;;;;;;4.17;3.33;;;5.10;99.90;;;;;;5028266;28;20184;-48
2020/12/28 09:48:08;;;;;;;4.70;3.70;;;5.20;99.90;;;;;;5020373;28;20579;-50
2020/12/28 09:50:33;;;;;;;4.67;3.67;;;5.20;99.90;;;;;;5029723;28;20176;-54
2020/12/28 09:52:59;;;;;;;5.17;3.07;;;5.20;99.90;;;;;;5033086;28;20176;-52
2020/12/28 09:55:25;;;;;;;4.97;3.70;;;5.20;99.90;;;;;;5035992;28;20195;-47
2020/12/28 09:57:51;;;;;;;4.60;3.53;;;5.30;99.90;;;;;;5034534;28;20289;-52
2020/12/28 10:00:19;;;;;;;6.27;4.77;;;5.30;99.90;;;;;;5021633;28;20168;-50
2020/12/28 10:02:45;;;;;;;46.83;32.47;;;5.30;99.90;;;;;;5016399;28;20204;-48
2020/12/28 10:05:10;;;;;;;11.83;9.40;;;5.20;99.90;;;;;;5030027;28;20226;-53
2020/12/28 10:07:37;;;;;;;6.00;4.57;;;5.30;99.90;;;;;;5033818;28;20183;-50
2020/12/28 10:10:07;;;;;;;4.97;4.20;;;5.30;99.90;;;;;;5030946;28;20595;-52
2020/12/28 10:12:34;;;;;;;5.13;3.80;;;5.30;99.90;;;;;;5035412;28;20521;-48
2020/12/28 10:15:00;;;;;;;4.60;3.70;;;5.40;99.90;;;;;;5033486;28;20222;-49
2020/12/28 10:17:25;;;;;;;5.70;4.13;;;5.40;99.90;;;;;;5016033;28;20168;-51
2020/12/28 10:19:51;;;;;;;3.97;3.30;;;5.40;99.90;;;;;;5035848;28;20195;-48
2020/12/28 10:22:17;;;;;;;4.27;3.20;;;5.50;99.90;;;;;;5034479;28;20180;-48
2020/12/28 10:24:42;;;;;;;3.83;3.23;;;5.60;99.90;;;;;;5033704;28;20262;-53
2020/12/28 10:27:08;;;;;;;3.40;3.10;;;5.70;99.90;;;;;;5036698;28;20645;-49
2020/12/28 10:29:33;;;;;;;4.60;3.50;;;5.80;99.90;;;;;;5035153;28;20592;-54
2020/12/28 10:31:59;;;;;;;4.00;3.23;;;5.80;99.90;;;;;;5036471;28;20168;-48
2020/12/28 10:34:26;;;;;;;4.00;3.33;;;5.80;99.90;;;;;;5029085;28;20270;-56
2020/12/28 10:36:52;;;;;;;3.90;3.27;;;5.80;99.90;;;;;;5024948;28;20207;-51
2020/12/28 10:39:17;;;;;;;4.57;3.40;;;5.90;99.90;;;;;;5038487;28;20200;-49
2020/12/28 10:41:43;;;;;;;4.07;2.60;;;5.90;99.90;;;;;;5034923;28;20187;-50
2020/12/28 10:44:09;;;;;;;4.47;3.00;;;6.70;99.90;;;;;;5037172;28;20207;-52
2020/12/28 10:46:37;;;;;;;3.07;2.50;;;6.00;99.90;;;;;;5035744;28;20230;-51
2020/12/28 10:49:04;;;;;;;3.27;2.97;;;5.90;99.90;;;;;;5033645;28;20209;-50
2020/12/28 10:51:29;;;;;;;3.47;2.60;;;6.00;99.90;;;;;;5040416;28;20225;-54
2020/12/28 10:53:55;;;;;;;3.97;2.80;;;5.90;99.90;;;;;;5017147;28;20204;-54
2020/12/28 10:56:24;;;;;;;2.63;2.40;;;5.90;99.90;;;;;;5017170;28;20242;-52
2020/12/28 10:58:50;;;;;;;3.20;2.60;;;5.80;99.90;;;;;;5023391;28;20200;-50
2020/12/28 11:01:19;;;;;;;2.80;2.50;;;5.80;99.90;;;;;;5023876;28;20656;-49
2020/12/28 11:03:44;;;;;;;2.63;2.37;;;5.80;99.90;;;;;;5019286;28;20192;-52
2020/12/28 11:06:10;;;;;;;3.10;2.80;;;5.90;99.90;;;;;;5023029;28;20187;-50
2020/12/28 11:08:37;;;;;;;2.60;2.40;;;5.90;99.90;;;;;;5027004;28;20203;-51
2020/12/28 11:11:03;;;;;;;2.70;2.50;;;5.90;99.90;;;;;;5021982;28;20180;-53
2020/12/28 11:13:28;;;;;;;3.47;3.17;;;5.90;99.90;;;;;;5034585;28;20270;-50
2020/12/28 11:15:54;;;;;;;3.53;2.70;;;6.00;99.90;;;;;;5021647;28;20214;-49
2020/12/28 11:18:19;;;;;;;4.20;3.30;;;6.10;99.90;;;;;;5038458;28;20191;-54
2020/12/28 11:20:45;;;;;;;7.13;3.80;;;6.10;99.90;;;;;;5040513;28;20175;-53
2020/12/28 11:23:10;;;;;;;2.80;2.53;;;6.10;99.90;;;;;;5032282;28;20784;-52
2020/12/28 11:25:36;;;;;;;3.70;2.83;;;6.10;99.90;;;;;;5035761;28;20190;-51
2020/12/28 11:28:01;;;;;;;3.17;2.53;;;6.10;99.80;;;;;;5027536;28;20698;-55
2020/12/28 11:30:27;;;;;;;3.27;2.47;;;6.10;99.90;;;;;;5022536;28;20559;-54
2020/12/28 11:32:53;;;;;;;2.60;2.40;;;6.20;99.90;;;;;;5028241;28;20529;-49
2020/12/28 11:35:18;;;;;;;3.27;2.60;;;6.20;99.40;;;;;;5033578;28;20208;-52
2020/12/28 11:37:44;;;;;;;3.60;2.83;;;6.30;99.40;;;;;;5015219;28;20208;-50
2020/12/28 11:40:10;;;;;;;2.50;2.20;;;6.30;99.00;;;;;;5020012;28;20259;-50
2020/12/28 11:42:35;;;;;;;2.73;2.53;;;6.40;99.30;;;;;;5031934;28;20183;-51
2020/12/28 11:45:02;;;;;;;3.23;2.57;;;6.40;98.90;;;;;;5043516;28;20229;-52
2020/12/28 11:47:27;;;;;;;2.73;2.30;;;6.50;98.90;;;;;;5039559;28;20212;-53
2020/12/28 11:49:53;;;;;;;3.03;2.40;;;6.60;98.80;;;;;;5039161;28;20196;-48
2020/12/28 11:52:20;;;;;;;3.27;2.70;;;6.70;98.70;;;;;;5040973;28;20274;-53
2020/12/28 11:54:46;;;;;;;2.57;2.37;;;6.90;98.50;;;;;;5021521;28;20179;-51
2020/12/28 11:57:12;;;;;;;2.70;2.23;;;7.40;98.80;;;;;;5035537;28;20572;-56
2020/12/28 11:59:37;;;;;;;4.13;2.50;;;7.90;98.40;;;;;;4994750;28;20200;-52
2020/12/28 12:02:03;;;;;;;3.77;2.33;;;8.90;97.70;;;;;;5015211;28;20579;-54
2020/12/28 12:05:01;;;;;;;2.43;2.23;;;10.10;96.30;;;;;;5036883;28;20532;-52
2020/12/28 12:07:23;;;;;;;2.57;2.33;;;11.80;94.20;;;;;;5022146;28;20273;-49
2020/12/28 12:09:50;;;;;;;2.57;2.30;;;13.60;89.10;;;;;;5030834;28;20188;-51
2020/12/28 12:12:16;;;;;;;2.50;2.20;;;14.60;83.50;;;;;;5029180;28;20254;-58
2020/12/28 12:14:42;;;;;;;2.07;1.87;;;15.30;79.70;;;;;;5028625;28;20535;-52
2020/12/28 12:17:08;;;;;;;2.80;2.50;;;15.60;74.90;;;;;;5030209;28;20655;-55
2020/12/28 12:19:34;;;;;;;3.20;2.90;;;15.20;71.80;;;;;;5041871;28;20203;-55
2020/12/28 12:22:00;;;;;;;3.03;2.60;;;14.50;72.00;;;;;;5035405;28;20175;-49
2020/12/28 12:24:26;;;;;;;3.67;2.80;;;14.00;73.90;;;;;;5040814;28;20236;-56
2020/12/28 12:26:51;;;;;;;3.87;2.77;;;13.80;74.30;;;;;;5037996;28;20591;-54
2020/12/28 12:29:17;;;;;;;2.87;1.90;;;14.20;74.90;;;;;;5036146;28;20223;-50
2020/12/28 12:31:42;;;;;;;3.23;2.90;;;14.70;72.40;;;;;;5035341;28;20655;-55
2020/12/28 12:34:08;;;;;;;3.13;2.77;;;15.30;70.30;;;;;;5039709;28;20168;-56
2020/12/28 12:36:35;;;;;;;4.80;4.17;;;16.00;70.10;;;;;;5037508;28;20675;-53
2020/12/28 12:39:01;;;;;;;3.70;2.80;;;16.50;66.70;;;;;;5036694;28;20192;-54
2020/12/28 12:41:27;;;;;;;2.50;2.30;;;16.60;66.20;;;;;;5023496;28;20198;-53
2020/12/28 12:43:52;;;;;;;2.23;2.03;;;16.70;66.30;;;;;;5019817;28;20199;-57
2020/12/28 12:46:18;;;;;;;2.60;2.40;;;16.60;66.70;;;;;;5036767;28;20187;-50
2020/12/28 12:48:44;;;;;;;2.80;2.50;;;16.40;67.30;;;;;;5037508;28;20618;-52
2020/12/28 12:51:11;;;;;;;2.30;2.10;;;16.10;65.50;;;;;;5039266;28;20250;-58
2020/12/28 12:53:37;;;;;;;2.03;1.80;;;16.00;66.40;;;;;;5036047;28;20180;-55
2020/12/28 12:56:03;;;;;;;1.70;1.60;;;15.80;66.10;;;;;;5034776;28;20287;-54